sensor_id;sensor_type;location;lat;lon;timestamp;temperature;humidity
37998;DHT22;24079;51.824;4.682;2023-09-19T00:00:37;16.90;99.90
37998;DHT22;24079;51.824;4.682;2023-09-19T00:03:06;16.90;99.90
37998;DHT22;24079;51.824;4.682;2023-09-19T00:05:36;16.90;99.90
37998;DHT22;24079;51.824;4.682;2023-09-19T00:08:02;16.80;99.90
37998;DHT22;24079;51.824;4.682;2023-09-19T00:10:31;16.80;99.90
37998;DHT22;24079;51.824;4.682;2023-09-19T00:12:58;16.80;99.90
37998;DHT22;24079;51.824;4.682;2023-09-19T00:15:40;16.80;99.90
37998;DHT22;24079;51.824;4.682;2023-09-19T00:18:06;16.80;99.90
37998;DHT22;24079;51.824;4.682;2023-09-19T00:20:35;16.90;99.90
37998;DHT22;24079;51.824;4.682;2023-09-19T00:23:01;16.80;99.90
37998;DHT22;24079;51.824;4.682;2023-09-19T00:25:37;16.90;99.90
37998;DHT22;24079;51.824;4.682;2023-09-19T00:28:06;16.80;99.90
37998;DHT22;24079;51.824;4.682;2023-09-19T00:30:34;16.80;99.90
37998;DHT22;24079;51.824;4.682;2023-09-19T00:33:00;16.80;99.90
37998;DHT22;24079;51.824;4.682;2023-09-19T00:35:27;16.70;99.90
37998;DHT22;24079;51.824;4.682;2023-09-19T00:37:53;16.80;99.90
37998;DHT22;24079;51.824;4.682;2023-09-19T00:40:21;16.80;99.90
37998;DHT22;24079;51.824;4.682;2023-09-19T00:42:49;16.80;99.90
37998;DHT22;24079;51.824;4.682;2023-09-19T00:45:17;16.70;99.90
37998;DHT22;24079;51.824;4.682;2023-09-19T00:47:45;16.70;99.90
37998;DHT22;24079;51.824;4.682;2023-09-19T00:50:13;16.70;99.90
37998;DHT22;24079;51.824;4.682;2023-09-19T00:52:42;16.60;99.90
37998;DHT22;24079;51.824;4.682;2023-09-19T00:55:09;16.70;99.90
37998;DHT22;24079;51.824;4.682;2023-09-19T00:57:37;16.60;99.90
37998;DHT22;24079;51.824;4.682;2023-09-19T01:00:05;16.50;99.90
37998;DHT22;24079;51.824;4.682;2023-09-19T01:02:38;16.50;99.90
37998;DHT22;24079;51.824;4.682;2023-09-19T01:05:04;16.50;99.90
37998;DHT22;24079;51.824;4.682;2023-09-19T01:07:32;16.60;99.90
37998;DHT22;24079;51.824;4.682;2023-09-19T01:10:05;16.50;99.90
37998;DHT22;24079;51.824;4.682;2023-09-19T01:13:11;16.50;99.90
37998;DHT22;24079;51.824;4.682;2023-09-19T01:15:47;16.50;99.90
37998;DHT22;24079;51.824;4.682;2023-09-19T01:18:30;16.50;99.90
37998;DHT22;24079;51.824;4.682;2023-09-19T01:24:41;16.50;99.90
37998;DHT22;24079;51.824;4.682;2023-09-19T01:27:06;16.50;99.90
37998;DHT22;24079;51.824;4.682;2023-09-19T01:29:48;16.50;99.90
37998;DHT22;24079;51.824;4.682;2023-09-19T01:32:19;16.40;99.90
37998;DHT22;24079;51.824;4.682;2023-09-19T01:34:47;16.40;99.90
37998;DHT22;24079;51.824;4.682;2023-09-19T01:37:14;16.30;99.90
37998;DHT22;24079;51.824;4.682;2023-09-19T01:39:47;16.30;99.90
37998;DHT22;24079;51.824;4.682;2023-09-19T01:42:27;16.20;99.90
37998;DHT22;24079;51.824;4.682;2023-09-19T01:45:13;16.20;99.90
37998;DHT22;24079;51.824;4.682;2023-09-19T01:50:34;16.20;99.90
37998;DHT22;24079;51.824;4.682;2023-09-19T01:53:26;16.20;99.90
37998;DHT22;24079;51.824;4.682;2023-09-19T01:55:57;16.20;99.90
37998;DHT22;24079;51.824;4.682;2023-09-19T01:58:40;16.30;99.90
37998;DHT22;24079;51.824;4.682;2023-09-19T02:01:12;16.20;99.90
37998;DHT22;24079;51.824;4.682;2023-09-19T02:03:41;16.20;99.90
37998;DHT22;24079;51.824;4.682;2023-09-19T02:06:07;16.30;99.90
37998;DHT22;24079;51.824;4.682;2023-09-19T02:08:37;16.30;99.90
37998;DHT22;24079;51.824;4.682;2023-09-19T02:11:03;16.30;99.90
37998;DHT22;24079;51.824;4.682;2023-09-19T02:13:29;16.30;99.90
37998;DHT22;24079;51.824;4.682;2023-09-19T02:15:57;16.30;99.90
37998;DHT22;24079;51.824;4.682;2023-09-19T02:18:24;16.30;99.90
37998;DHT22;24079;51.824;4.682;2023-09-19T02:20:53;16.20;99.90
37998;DHT22;24079;51.824;4.682;2023-09-19T02:23:20;16.10;99.90
37998;DHT22;24079;51.824;4.682;2023-09-19T02:25:56;16.00;99.90
37998;DHT22;24079;51.824;4.682;2023-09-19T02:28:48;16.00;99.90
37998;DHT22;24079;51.824;4.682;2023-09-19T02:31:14;16.00;99.90
37998;DHT22;24079;51.824;4.682;2023-09-19T02:33:42;15.90;99.90
37998;DHT22;24079;51.824;4.682;2023-09-19T02:36:09;15.90;99.90
37998;DHT22;24079;51.824;4.682;2023-09-19T02:38:35;15.80;99.90
37998;DHT22;24079;51.824;4.682;2023-09-19T02:41:01;15.80;99.90
37998;DHT22;24079;51.824;4.682;2023-09-19T02:43:27;15.70;99.90
37998;DHT22;24079;51.824;4.682;2023-09-19T02:45:53;15.80;99.90
37998;DHT22;24079;51.824;4.682;2023-09-19T02:48:20;15.70;99.90
37998;DHT22;24079;51.824;4.682;2023-09-19T02:50:49;15.70;99.90
37998;DHT22;24079;51.824;4.682;2023-09-19T02:53:15;15.70;99.90
37998;DHT22;24079;51.824;4.682;2023-09-19T02:55:42;15.70;99.90
37998;DHT22;24079;51.824;4.682;2023-09-19T02:58:09;15.60;99.90
37998;DHT22;24079;51.824;4.682;2023-09-19T03:00:37;15.60;99.90
37998;DHT22;24079;51.824;4.682;2023-09-19T03:03:03;15.60;99.90
37998;DHT22;24079;51.824;4.682;2023-09-19T03:05:31;15.60;99.90
37998;DHT22;24079;51.824;4.682;2023-09-19T03:07:58;15.60;99.90
37998;DHT22;24079;51.824;4.682;2023-09-19T03:10:26;15.60;99.90
37998;DHT22;24079;51.824;4.682;2023-09-19T03:12:52;15.50;99.90
37998;DHT22;24079;51.824;4.682;2023-09-19T03:15:18;15.60;99.90
37998;DHT22;24079;51.824;4.682;2023-09-19T03:17:46;15.50;99.90
37998;DHT22;24079;51.824;4.682;2023-09-19T03:20:13;15.50;99.90
37998;DHT22;24079;51.824;4.682;2023-09-19T03:22:43;15.40;99.90
37998;DHT22;24079;51.824;4.682;2023-09-19T03:25:09;15.40;99.90
37998;DHT22;24079;51.824;4.682;2023-09-19T03:27:38;15.30;99.90
37998;DHT22;24079;51.824;4.682;2023-09-19T03:30:05;15.30;99.90
37998;DHT22;24079;51.824;4.682;2023-09-19T03:32:44;15.30;99.90
37998;DHT22;24079;51.824;4.682;2023-09-19T03:35:11;15.30;99.90
37998;DHT22;24079;51.824;4.682;2023-09-19T03:37:41;15.30;99.90
37998;DHT22;24079;51.824;4.682;2023-09-19T03:40:09;15.30;99.90
37998;DHT22;24079;51.824;4.682;2023-09-19T03:42:40;15.30;99.90
37998;DHT22;24079;51.824;4.682;2023-09-19T03:45:08;15.30;99.90
37998;DHT22;24079;51.824;4.682;2023-09-19T03:47:38;15.20;99.90
37998;DHT22;24079;51.824;4.682;2023-09-19T03:50:06;15.30;99.90
37998;DHT22;24079;51.824;4.682;2023-09-19T03:52:37;15.30;99.90
37998;DHT22;24079;51.824;4.682;2023-09-19T03:55:03;15.30;99.90
37998;DHT22;24079;51.824;4.682;2023-09-19T03:57:32;15.30;99.90
37998;DHT22;24079;51.824;4.682;2023-09-19T04:00:00;15.20;99.90
37998;DHT22;24079;51.824;4.682;2023-09-19T04:02:26;15.20;99.90
37998;DHT22;24079;51.824;4.682;2023-09-19T04:04:59;15.20;99.90
37998;DHT22;24079;51.824;4.682;2023-09-19T04:07:25;15.10;99.90
37998;DHT22;24079;51.824;4.682;2023-09-19T04:09:54;15.10;99.90
37998;DHT22;24079;51.824;4.682;2023-09-19T04:12:21;15.10;99.90
37998;DHT22;24079;51.824;4.682;2023-09-19T04:14:47;15.20;99.90
37998;DHT22;24079;51.824;4.682;2023-09-19T04:17:13;15.30;99.90
37998;DHT22;24079;51.824;4.682;2023-09-19T04:19:39;15.20;99.90
37998;DHT22;24079;51.824;4.682;2023-09-19T04:22:07;15.20;99.90
37998;DHT22;24079;51.824;4.682;2023-09-19T04:24:33;15.20;99.90
37998;DHT22;24079;51.824;4.682;2023-09-19T04:26:59;15.20;99.90
37998;DHT22;24079;51.824;4.682;2023-09-19T04:29:25;15.10;99.90
37998;DHT22;24079;51.824;4.682;2023-09-19T04:31:56;15.20;99.90
37998;DHT22;24079;51.824;4.682;2023-09-19T04:34:24;15.20;99.90
37998;DHT22;24079;51.824;4.682;2023-09-19T04:36:51;15.30;99.90
37998;DHT22;24079;51.824;4.682;2023-09-19T04:39:18;15.30;99.90
37998;DHT22;24079;51.824;4.682;2023-09-19T04:41:44;15.40;99.90
37998;DHT22;24079;51.824;4.682;2023-09-19T04:44:11;15.40;99.90
37998;DHT22;24079;51.824;4.682;2023-09-19T04:46:39;15.40;99.90
37998;DHT22;24079;51.824;4.682;2023-09-19T04:49:05;15.40;99.90
37998;DHT22;24079;51.824;4.682;2023-09-19T04:51:31;15.50;99.90
37998;DHT22;24079;51.824;4.682;2023-09-19T04:54:00;15.50;99.90
37998;DHT22;24079;51.824;4.682;2023-09-19T04:56:26;15.50;99.90
37998;DHT22;24079;51.824;4.682;2023-09-19T04:58:54;15.50;99.90
37998;DHT22;24079;51.824;4.682;2023-09-19T05:01:20;15.50;99.90
37998;DHT22;24079;51.824;4.682;2023-09-19T05:03:48;15.50;99.90
37998;DHT22;24079;51.824;4.682;2023-09-19T05:06:20;15.40;99.90
37998;DHT22;24079;51.824;4.682;2023-09-19T05:08:48;15.40;99.90
37998;DHT22;24079;51.824;4.682;2023-09-19T05:11:19;15.30;99.90
37998;DHT22;24079;51.824;4.682;2023-09-19T05:13:45;15.30;99.90
37998;DHT22;24079;51.824;4.682;2023-09-19T05:16:11;15.30;99.90
37998;DHT22;24079;51.824;4.682;2023-09-19T05:18:38;15.30;99.90
37998;DHT22;24079;51.824;4.682;2023-09-19T05:21:03;15.30;99.90
37998;DHT22;24079;51.824;4.682;2023-09-19T05:23:29;15.30;99.90
37998;DHT22;24079;51.824;4.682;2023-09-19T05:25:56;15.30;99.90
37998;DHT22;24079;51.824;4.682;2023-09-19T05:28:24;15.30;99.90
37998;DHT22;24079;51.824;4.682;2023-09-19T05:30:49;15.20;99.90
37998;DHT22;24079;51.824;4.682;2023-09-19T05:33:15;15.30;99.90
37998;DHT22;24079;51.824;4.682;2023-09-19T05:35:41;15.30;99.90
37998;DHT22;24079;51.824;4.682;2023-09-19T05:38:07;15.30;99.90
37998;DHT22;24079;51.824;4.682;2023-09-19T05:40:35;15.30;99.90
37998;DHT22;24079;51.824;4.682;2023-09-19T05:43:01;15.30;99.90
37998;DHT22;24079;51.824;4.682;2023-09-19T05:45:29;15.30;99.90
37998;DHT22;24079;51.824;4.682;2023-09-19T05:47:55;15.30;99.90
37998;DHT22;24079;51.824;4.682;2023-09-19T05:50:29;15.30;99.90
37998;DHT22;24079;51.824;4.682;2023-09-19T05:52:56;15.30;99.90
37998;DHT22;24079;51.824;4.682;2023-09-19T05:55:22;15.30;99.90
37998;DHT22;24079;51.824;4.682;2023-09-19T05:57:51;15.30;99.90
37998;DHT22;24079;51.824;4.682;2023-09-19T06:00:21;15.30;99.90
37998;DHT22;24079;51.824;4.682;2023-09-19T06:02:54;15.30;99.90
37998;DHT22;24079;51.824;4.682;2023-09-19T06:05:21;15.30;99.90
37998;DHT22;24079;51.824;4.682;2023-09-19T06:07:47;15.30;99.90
37998;DHT22;24079;51.824;4.682;2023-09-19T06:10:13;15.30;99.90
37998;DHT22;24079;51.824;4.682;2023-09-19T06:12:40;15.40;99.90
37998;DHT22;24079;51.824;4.682;2023-09-19T06:15:09;15.30;99.90
37998;DHT22;24079;51.824;4.682;2023-09-19T06:17:38;15.40;99.90
37998;DHT22;24079;51.824;4.682;2023-09-19T06:20:05;15.40;99.90
37998;DHT22;24079;51.824;4.682;2023-09-19T06:22:38;15.40;99.90
37998;DHT22;24079;51.824;4.682;2023-09-19T06:25:04;15.40;99.90
37998;DHT22;24079;51.824;4.682;2023-09-19T06:27:30;15.40;99.90
37998;DHT22;24079;51.824;4.682;2023-09-19T06:29:56;15.50;99.90
37998;DHT22;24079;51.824;4.682;2023-09-19T06:32:27;15.50;99.90
37998;DHT22;24079;51.824;4.682;2023-09-19T06:34:53;15.50;99.90
37998;DHT22;24079;51.824;4.682;2023-09-19T06:37:27;15.50;99.90
37998;DHT22;24079;51.824;4.682;2023-09-19T06:39:53;15.50;99.90
37998;DHT22;24079;51.824;4.682;2023-09-19T06:42:19;15.60;99.90
37998;DHT22;24079;51.824;4.682;2023-09-19T06:44:45;15.60;99.90
37998;DHT22;24079;51.824;4.682;2023-09-19T06:47:11;15.60;99.90
37998;DHT22;24079;51.824;4.682;2023-09-19T06:49:37;15.70;99.90
37998;DHT22;24079;51.824;4.682;2023-09-19T06:52:04;15.70;99.90
37998;DHT22;24079;51.824;4.682;2023-09-19T06:54:30;15.60;99.90
37998;DHT22;24079;51.824;4.682;2023-09-19T06:56:57;15.70;99.90
37998;DHT22;24079;51.824;4.682;2023-09-19T06:59:43;15.70;99.90
37998;DHT22;24079;51.824;4.682;2023-09-19T07:02:10;15.90;99.90
37998;DHT22;24079;51.824;4.682;2023-09-19T07:04:36;15.80;99.90
37998;DHT22;24079;51.824;4.682;2023-09-19T07:07:02;15.80;99.90
37998;DHT22;24079;51.824;4.682;2023-09-19T07:09:29;15.80;99.90
37998;DHT22;24079;51.824;4.682;2023-09-19T07:11:55;15.90;99.90
37998;DHT22;24079;51.824;4.682;2023-09-19T07:14:21;16.00;99.90
37998;DHT22;24079;51.824;4.682;2023-09-19T07:16:48;16.10;99.90
37998;DHT22;24079;51.824;4.682;2023-09-19T07:19:15;16.30;99.90
37998;DHT22;24079;51.824;4.682;2023-09-19T07:21:41;16.40;99.90
37998;DHT22;24079;51.824;4.682;2023-09-19T07:24:08;16.50;99.90
37998;DHT22;24079;51.824;4.682;2023-09-19T07:26:34;16.70;99.90
37998;DHT22;24079;51.824;4.682;2023-09-19T07:29:00;16.80;99.90
37998;DHT22;24079;51.824;4.682;2023-09-19T07:31:29;16.90;99.90
37998;DHT22;24079;51.824;4.682;2023-09-19T07:33:56;17.00;99.90
37998;DHT22;24079;51.824;4.682;2023-09-19T07:36:22;17.30;99.90
37998;DHT22;24079;51.824;4.682;2023-09-19T07:38:50;17.40;99.90
37998;DHT22;24079;51.824;4.682;2023-09-19T07:41:16;17.60;99.90
37998;DHT22;24079;51.824;4.682;2023-09-19T07:43:42;17.70;99.90
37998;DHT22;24079;51.824;4.682;2023-09-19T07:46:08;17.50;99.90
37998;DHT22;24079;51.824;4.682;2023-09-19T07:48:35;17.50;99.90
37998;DHT22;24079;51.824;4.682;2023-09-19T07:51:08;17.60;99.90
37998;DHT22;24079;51.824;4.682;2023-09-19T07:53:35;17.60;99.90
37998;DHT22;24079;51.824;4.682;2023-09-19T07:56:05;17.30;99.90
37998;DHT22;24079;51.824;4.682;2023-09-19T07:58:32;17.30;99.90
37998;DHT22;24079;51.824;4.682;2023-09-19T08:01:09;17.20;99.90
37998;DHT22;24079;51.824;4.682;2023-09-19T08:03:39;17.30;99.90
37998;DHT22;24079;51.824;4.682;2023-09-19T08:06:09;17.40;99.90
37998;DHT22;24079;51.824;4.682;2023-09-19T08:08:36;17.50;99.90
37998;DHT22;24079;51.824;4.682;2023-09-19T08:11:06;17.50;99.90
37998;DHT22;24079;51.824;4.682;2023-09-19T08:13:38;17.30;99.90
37998;DHT22;24079;51.824;4.682;2023-09-19T08:16:10;17.50;99.90
37998;DHT22;24079;51.824;4.682;2023-09-19T08:18:37;17.60;99.90
37998;DHT22;24079;51.824;4.682;2023-09-19T08:21:06;17.40;99.90
37998;DHT22;24079;51.824;4.682;2023-09-19T08:23:37;17.30;99.90
37998;DHT22;24079;51.824;4.682;2023-09-19T08:26:04;17.10;99.90
37998;DHT22;24079;51.824;4.682;2023-09-19T08:28:33;17.00;99.90
37998;DHT22;24079;51.824;4.682;2023-09-19T08:31:06;17.10;99.90
37998;DHT22;24079;51.824;4.682;2023-09-19T08:33:33;17.10;99.90
37998;DHT22;24079;51.824;4.682;2023-09-19T08:35:59;17.10;99.90
37998;DHT22;24079;51.824;4.682;2023-09-19T08:38:25;17.20;99.90
37998;DHT22;24079;51.824;4.682;2023-09-19T08:41:11;17.20;99.90
37998;DHT22;24079;51.824;4.682;2023-09-19T08:43:38;17.30;99.90
37998;DHT22;24079;51.824;4.682;2023-09-19T08:46:16;17.50;99.90
37998;DHT22;24079;51.824;4.682;2023-09-19T08:49:00;17.60;99.90
37998;DHT22;24079;51.824;4.682;2023-09-19T08:51:42;17.80;99.90
37998;DHT22;24079;51.824;4.682;2023-09-19T08:54:25;17.80;99.90
37998;DHT22;24079;51.824;4.682;2023-09-19T08:56:54;17.80;99.90
37998;DHT22;24079;51.824;4.682;2023-09-19T08:59:22;17.90;99.90
37998;DHT22;24079;51.824;4.682;2023-09-19T09:01:53;18.10;99.90
37998;DHT22;24079;51.824;4.682;2023-09-19T09:04:19;18.30;99.90
37998;DHT22;24079;51.824;4.682;2023-09-19T09:06:46;18.40;99.90
37998;DHT22;24079;51.824;4.682;2023-09-19T09:09:18;18.50;99.90
37998;DHT22;24079;51.824;4.682;2023-09-19T09:11:45;18.50;99.90
37998;DHT22;24079;51.824;4.682;2023-09-19T09:14:28;18.50;99.90
37998;DHT22;24079;51.824;4.682;2023-09-19T09:16:55;18.60;99.90
37998;DHT22;24079;51.824;4.682;2023-09-19T09:19:24;18.50;99.90
37998;DHT22;24079;51.824;4.682;2023-09-19T09:21:51;18.50;99.90
37998;DHT22;24079;51.824;4.682;2023-09-19T09:24:27;18.60;99.90
37998;DHT22;24079;51.824;4.682;2023-09-19T09:26:57;18.80;99.90
37998;DHT22;24079;51.824;4.682;2023-09-19T09:29:45;19.00;99.90
37998;DHT22;24079;51.824;4.682;2023-09-19T09:32:19;19.10;99.90
37998;DHT22;24079;51.824;4.682;2023-09-19T09:34:47;18.90;99.90
37998;DHT22;24079;51.824;4.682;2023-09-19T09:37:15;18.80;99.90
37998;DHT22;24079;51.824;4.682;2023-09-19T09:39:50;19.10;99.90
37998;DHT22;24079;51.824;4.682;2023-09-19T09:42:31;19.00;99.90
37998;DHT22;24079;51.824;4.682;2023-09-19T09:47:53;18.80;99.90
37998;DHT22;24079;51.824;4.682;2023-09-19T09:50:29;18.80;99.90
37998;DHT22;24079;51.824;4.682;2023-09-19T09:53:18;19.00;99.90
37998;DHT22;24079;51.824;4.682;2023-09-19T09:56:08;19.30;99.90
37998;DHT22;24079;51.824;4.682;2023-09-19T10:01:13;19.30;99.90
37998;DHT22;24079;51.824;4.682;2023-09-19T10:03:42;19.50;99.90
37998;DHT22;24079;51.824;4.682;2023-09-19T10:06:17;19.50;99.90
37998;DHT22;24079;51.824;4.682;2023-09-19T10:09:02;19.40;99.90
37998;DHT22;24079;51.824;4.682;2023-09-19T10:11:48;19.40;99.90
37998;DHT22;24079;51.824;4.682;2023-09-19T10:14:37;19.30;99.90
37998;DHT22;24079;51.824;4.682;2023-09-19T10:17:23;19.20;99.90
37998;DHT22;24079;51.824;4.682;2023-09-19T10:20:20;19.20;99.90
37998;DHT22;24079;51.824;4.682;2023-09-19T10:23:08;19.30;99.90
37998;DHT22;24079;51.824;4.682;2023-09-19T10:25:55;19.30;99.90
37998;DHT22;24079;51.824;4.682;2023-09-19T10:28:41;19.30;99.90
37998;DHT22;24079;51.824;4.682;2023-09-19T10:31:28;19.50;99.90
37998;DHT22;24079;51.824;4.682;2023-09-19T10:34:14;19.50;99.90
37998;DHT22;24079;51.824;4.682;2023-09-19T10:37:02;19.60;99.90
37998;DHT22;24079;51.824;4.682;2023-09-19T10:39:48;19.80;99.90
37998;DHT22;24079;51.824;4.682;2023-09-19T10:42:37;20.00;99.90
37998;DHT22;24079;51.824;4.682;2023-09-19T10:45:23;20.20;99.90
37998;DHT22;24079;51.824;4.682;2023-09-19T10:48:09;20.50;99.90
37998;DHT22;24079;51.824;4.682;2023-09-19T10:54:19;20.40;99.90
37998;DHT22;24079;51.824;4.682;2023-09-19T10:57:05;20.40;99.90
37998;DHT22;24079;51.824;4.682;2023-09-19T11:00:05;20.30;99.90
37998;DHT22;24079;51.824;4.682;2023-09-19T11:06:17;20.10;99.90
37998;DHT22;24079;51.824;4.682;2023-09-19T11:09:04;20.10;99.90
37998;DHT22;24079;51.824;4.682;2023-09-19T11:11:50;20.00;99.90
37998;DHT22;24079;51.824;4.682;2023-09-19T11:14:40;20.00;99.90
37998;DHT22;24079;51.824;4.682;2023-09-19T11:17:36;20.20;99.90
37998;DHT22;24079;51.824;4.682;2023-09-19T11:20:23;20.20;99.90
37998;DHT22;24079;51.824;4.682;2023-09-19T11:30:39;20.10;99.90
37998;DHT22;24079;51.824;4.682;2023-09-19T11:33:21;19.90;99.90
37998;DHT22;24079;51.824;4.682;2023-09-19T11:36:08;19.80;99.90
37998;DHT22;24079;51.824;4.682;2023-09-19T11:46:33;19.80;99.90
37998;DHT22;24079;51.824;4.682;2023-09-19T11:49:06;19.80;99.90
37998;DHT22;24079;51.824;4.682;2023-09-19T11:51:48;19.80;99.90
37998;DHT22;24079;51.824;4.682;2023-09-19T11:54:18;19.90;99.90
37998;DHT22;24079;51.824;4.682;2023-09-19T11:56:51;19.80;99.90
37998;DHT22;24079;51.824;4.682;2023-09-19T11:59:24;19.80;99.90
37998;DHT22;24079;51.824;4.682;2023-09-19T12:01:55;19.80;99.90
37998;DHT22;24079;51.824;4.682;2023-09-19T12:04:41;19.80;99.90
37998;DHT22;24079;51.824;4.682;2023-09-19T12:07:14;19.70;99.90
37998;DHT22;24079;51.824;4.682;2023-09-19T12:09:47;19.60;99.90
37998;DHT22;24079;51.824;4.682;2023-09-19T12:12:23;19.60;99.90
37998;DHT22;24079;51.824;4.682;2023-09-19T12:14:54;19.50;99.90
37998;DHT22;24079;51.824;4.682;2023-09-19T12:17:20;19.50;99.90
37998;DHT22;24079;51.824;4.682;2023-09-19T12:19:51;19.50;99.90
37998;DHT22;24079;51.824;4.682;2023-09-19T12:22:18;19.50;99.90
37998;DHT22;24079;51.824;4.682;2023-09-19T12:24:46;19.50;99.90
37998;DHT22;24079;51.824;4.682;2023-09-19T12:27:13;19.50;99.90
37998;DHT22;24079;51.824;4.682;2023-09-19T12:29:46;19.50;99.90
37998;DHT22;24079;51.824;4.682;2023-09-19T12:32:14;19.50;99.90
37998;DHT22;24079;51.824;4.682;2023-09-19T12:34:49;19.40;99.90
37998;DHT22;24079;51.824;4.682;2023-09-19T12:37:16;19.50;99.90
37998;DHT22;24079;51.824;4.682;2023-09-19T12:39:50;19.50;99.90
37998;DHT22;24079;51.824;4.682;2023-09-19T12:42:23;19.40;99.90
37998;DHT22;24079;51.824;4.682;2023-09-19T12:44:52;19.30;99.90
37998;DHT22;24079;51.824;4.682;2023-09-19T12:47:23;19.20;99.90
37998;DHT22;24079;51.824;4.682;2023-09-19T12:50:12;19.20;99.90
37998;DHT22;24079;51.824;4.682;2023-09-19T12:52:40;19.10;99.90
37998;DHT22;24079;51.824;4.682;2023-09-19T12:55:07;19.10;99.90
37998;DHT22;24079;51.824;4.682;2023-09-19T12:57:34;19.20;99.90
37998;DHT22;24079;51.824;4.682;2023-09-19T13:00:04;19.40;99.90
37998;DHT22;24079;51.824;4.682;2023-09-19T13:02:37;19.60;99.90
37998;DHT22;24079;51.824;4.682;2023-09-19T13:05:04;19.70;99.90
37998;DHT22;24079;51.824;4.682;2023-09-19T13:07:45;20.00;99.90
37998;DHT22;24079;51.824;4.682;2023-09-19T13:10:15;20.30;99.90
37998;DHT22;24079;51.824;4.682;2023-09-19T13:12:43;20.40;99.90
37998;DHT22;24079;51.824;4.682;2023-09-19T13:15:15;20.40;99.90
37998;DHT22;24079;51.824;4.682;2023-09-19T13:17:51;20.30;99.90
37998;DHT22;24079;51.824;4.682;2023-09-19T13:20:36;20.10;99.90
37998;DHT22;24079;51.824;4.682;2023-09-19T13:23:28;20.10;99.90
37998;DHT22;24079;51.824;4.682;2023-09-19T13:26:13;20.20;99.90
37998;DHT22;24079;51.824;4.682;2023-09-19T13:28:59;20.10;99.90
37998;DHT22;24079;51.824;4.682;2023-09-19T13:31:25;20.00;99.90
37998;DHT22;24079;51.824;4.682;2023-09-19T13:33:50;20.00;99.90
37998;DHT22;24079;51.824;4.682;2023-09-19T13:36:17;20.10;99.90
37998;DHT22;24079;51.824;4.682;2023-09-19T13:38:44;20.00;99.90
37998;DHT22;24079;51.824;4.682;2023-09-19T13:41:10;20.00;99.90
37998;DHT22;24079;51.824;4.682;2023-09-19T13:43:37;19.90;99.90
37998;DHT22;24079;51.824;4.682;2023-09-19T13:46:05;19.90;99.90
37998;DHT22;24079;51.824;4.682;2023-09-19T13:48:33;19.90;99.90
37998;DHT22;24079;51.824;4.682;2023-09-19T13:51:04;19.90;99.90
37998;DHT22;24079;51.824;4.682;2023-09-19T13:53:30;19.80;99.90
37998;DHT22;24079;51.824;4.682;2023-09-19T13:55:56;19.80;99.90
37998;DHT22;24079;51.824;4.682;2023-09-19T13:58:22;19.80;99.90
37998;DHT22;24079;51.824;4.682;2023-09-19T14:00:53;19.90;99.90
37998;DHT22;24079;51.824;4.682;2023-09-19T14:03:21;19.80;99.90
37998;DHT22;24079;51.824;4.682;2023-09-19T14:05:47;19.80;99.90
37998;DHT22;24079;51.824;4.682;2023-09-19T14:08:14;19.80;99.90
37998;DHT22;24079;51.824;4.682;2023-09-19T14:10:40;19.80;99.90
37998;DHT22;24079;51.824;4.682;2023-09-19T14:13:06;19.80;99.90
37998;DHT22;24079;51.824;4.682;2023-09-19T14:15:32;19.70;99.90
37998;DHT22;24079;51.824;4.682;2023-09-19T14:18:00;19.70;99.90
37998;DHT22;24079;51.824;4.682;2023-09-19T14:20:26;19.60;99.90
37998;DHT22;24079;51.824;4.682;2023-09-19T14:22:53;19.60;99.90
37998;DHT22;24079;51.824;4.682;2023-09-19T14:25:19;19.60;99.90
37998;DHT22;24079;51.824;4.682;2023-09-19T14:27:46;19.60;99.90
37998;DHT22;24079;51.824;4.682;2023-09-19T14:30:13;19.50;99.90
37998;DHT22;24079;51.824;4.682;2023-09-19T14:32:39;19.50;99.90
37998;DHT22;24079;51.824;4.682;2023-09-19T14:35:07;19.60;99.90
37998;DHT22;24079;51.824;4.682;2023-09-19T14:37:33;19.60;99.90
37998;DHT22;24079;51.824;4.682;2023-09-19T14:39:59;19.60;99.90
37998;DHT22;24079;51.824;4.682;2023-09-19T14:42:25;19.70;99.90
37998;DHT22;24079;51.824;4.682;2023-09-19T14:44:51;19.60;99.90
37998;DHT22;24079;51.824;4.682;2023-09-19T14:47:17;19.60;99.90
37998;DHT22;24079;51.824;4.682;2023-09-19T14:49:42;19.60;99.90
37998;DHT22;24079;51.824;4.682;2023-09-19T14:52:09;19.70;99.90
37998;DHT22;24079;51.824;4.682;2023-09-19T14:54:36;19.60;99.90
37998;DHT22;24079;51.824;4.682;2023-09-19T14:57:04;19.70;99.90
37998;DHT22;24079;51.824;4.682;2023-09-19T14:59:31;19.60;99.90
37998;DHT22;24079;51.824;4.682;2023-09-19T15:01:58;19.70;99.90
37998;DHT22;24079;51.824;4.682;2023-09-19T15:04:24;19.70;99.90
37998;DHT22;24079;51.824;4.682;2023-09-19T15:06:50;19.60;99.90
37998;DHT22;24079;51.824;4.682;2023-09-19T15:09:24;19.60;99.90
37998;DHT22;24079;51.824;4.682;2023-09-19T15:12:10;19.60;99.90
37998;DHT22;24079;51.824;4.682;2023-09-19T15:14:40;19.60;99.90
37998;DHT22;24079;51.824;4.682;2023-09-19T15:17:06;19.60;99.90
37998;DHT22;24079;51.824;4.682;2023-09-19T15:19:32;19.60;99.90
37998;DHT22;24079;51.824;4.682;2023-09-19T15:21:57;19.70;99.90
37998;DHT22;24079;51.824;4.682;2023-09-19T15:24:23;19.60;99.90
37998;DHT22;24079;51.824;4.682;2023-09-19T15:26:52;19.60;99.90
37998;DHT22;24079;51.824;4.682;2023-09-19T15:29:20;19.70;99.90
37998;DHT22;24079;51.824;4.682;2023-09-19T15:31:46;19.60;99.90
37998;DHT22;24079;51.824;4.682;2023-09-19T15:34:12;19.70;99.90
37998;DHT22;24079;51.824;4.682;2023-09-19T15:36:41;19.70;99.90
37998;DHT22;24079;51.824;4.682;2023-09-19T15:39:07;19.60;99.90
37998;DHT22;24079;51.824;4.682;2023-09-19T15:41:40;19.60;99.90
37998;DHT22;24079;51.824;4.682;2023-09-19T15:44:13;19.70;99.90
37998;DHT22;24079;51.824;4.682;2023-09-19T15:46:39;19.60;99.90
37998;DHT22;24079;51.824;4.682;2023-09-19T15:49:06;19.60;99.90
37998;DHT22;24079;51.824;4.682;2023-09-19T15:51:34;19.60;99.90
37998;DHT22;24079;51.824;4.682;2023-09-19T15:54:08;19.60;99.90
37998;DHT22;24079;51.824;4.682;2023-09-19T15:56:34;19.60;99.90
37998;DHT22;24079;51.824;4.682;2023-09-19T15:59:04;19.60;99.90
37998;DHT22;24079;51.824;4.682;2023-09-19T16:01:29;19.60;99.90
37998;DHT22;24079;51.824;4.682;2023-09-19T16:03:55;19.60;99.90
37998;DHT22;24079;51.824;4.682;2023-09-19T16:06:26;19.50;99.90
37998;DHT22;24079;51.824;4.682;2023-09-19T16:08:57;19.30;99.90
37998;DHT22;24079;51.824;4.682;2023-09-19T16:11:25;19.30;99.90
37998;DHT22;24079;51.824;4.682;2023-09-19T16:13:52;19.20;99.90
37998;DHT22;24079;51.824;4.682;2023-09-19T16:16:20;19.20;99.90
37998;DHT22;24079;51.824;4.682;2023-09-19T16:18:56;19.30;99.90
37998;DHT22;24079;51.824;4.682;2023-09-19T16:21:24;19.30;99.90
37998;DHT22;24079;51.824;4.682;2023-09-19T16:23:52;19.30;99.90
37998;DHT22;24079;51.824;4.682;2023-09-19T16:26:22;19.30;99.90